Time;durP1;ratioP1;P1;durP2;ratioP2;P2;SDS_P1;SDS_P2;PMS_P1;PMS_P2;Temp;Humidity;BMP_temperature;BMP_pressure;BME280_temperature;BME280_humidity;BME280_pressure;Samples;Min_cycle;Max_cycle;Signal;HPM_P1;HPM_P2
2023/06/26 00:00:44;;;;;;;8.20;5.35;;;;;;;20.01;58.04;100278.56;5131508;27;20249;-64
2023/06/26 00:03:14;;;;;;;8.63;5.65;;;;;;;19.99;58.28;100283.03;5130777;27;20276;-64
2023/06/26 00:05:42;;;;;;;7.60;5.63;;;;;;;19.96;58.06;100280.56;5134827;27;20457;-65
2023/06/26 00:08:10;;;;;;;6.35;5.60;;;;;;;19.95;58.28;100281.47;5132676;27;20199;-65
2023/06/26 00:10:39;;;;;;;8.68;6.13;;;;;;;19.92;58.51;100279.88;5127948;27;20225;-66
2023/06/26 00:13:12;;;;;;;8.07;5.93;;;;;;;19.90;58.43;100281.69;5126530;27;20226;-64
2023/06/26 00:15:40;;;;;;;6.53;5.82;;;;;;;19.87;58.56;100283.59;5126177;27;20657;-64
2023/06/26 00:18:08;;;;;;;8.70;6.03;;;;;;;19.78;58.31;100267.41;5131108;27;20195;-65
2023/06/26 00:20:36;;;;;;;7.78;6.05;;;;;;;19.77;58.71;100276.19;5131919;28;20730;-65
2023/06/26 00:23:07;;;;;;;9.05;6.15;;;;;;;19.73;58.93;100273.75;5131738;27;20226;-64
2023/06/26 00:25:35;;;;;;;9.63;6.50;;;;;;;19.72;59.23;100272.91;5131009;27;20207;-64
2023/06/26 00:28:03;;;;;;;8.18;6.65;;;;;;;19.71;59.29;100281.69;5127433;27;20207;-65
2023/06/26 00:30:33;;;;;;;8.52;6.82;;;;;;;19.69;59.25;100280.91;5131423;27;20240;-65
2023/06/26 00:33:01;;;;;;;10.75;5.75;;;;;;;19.65;59.30;100276.72;5130553;27;20595;-65
2023/06/26 00:35:29;;;;;;;8.27;6.63;;;;;;;19.62;59.32;100273.38;5129912;27;20564;-64
2023/06/26 00:37:57;;;;;;;8.10;6.38;;;;;;;19.58;59.54;100282.28;5129286;27;20524;-65
2023/06/26 00:40:26;;;;;;;10.90;5.93;;;;;;;19.54;59.54;100279.78;5136835;27;20570;-66
2023/06/26 00:42:55;;;;;;;7.85;6.50;;;;;;;19.53;59.82;100272.03;5130116;27;20335;-67
2023/06/26 00:45:23;;;;;;;8.02;6.35;;;;;;;19.54;59.88;100276.34;5133079;27;20630;-65
2023/06/26 00:48:12;;;;;;;8.65;7.15;;;;;;;19.52;59.81;100270.34;5130710;27;20217;-62
2023/06/26 00:50:41;;;;;;;8.77;6.32;;;;;;;19.53;59.87;100266.81;5134154;27;20192;-61
2023/06/26 00:53:10;;;;;;;8.18;6.45;;;;;;;19.51;59.96;100264.28;5133763;27;20210;-62
2023/06/26 00:55:38;;;;;;;8.27;6.25;;;;;;;19.50;60.08;100267.78;5135384;27;20275;-61
2023/06/26 00:58:06;;;;;;;7.63;6.35;;;;;;;19.51;60.22;100266.00;5135352;27;20737;-61
2023/06/26 01:00:34;;;;;;;8.65;6.65;;;;;;;19.47;60.55;100264.47;5132653;27;20247;-62
2023/06/26 01:03:03;;;;;;;9.60;6.82;;;;;;;19.46;60.44;100268.00;5132924;27;20203;-61
2023/06/26 01:05:33;;;;;;;6.32;5.72;;;;;;;19.42;60.59;100263.81;5135725;27;20621;-61
2023/06/26 01:08:00;;;;;;;9.27;6.45;;;;;;;19.40;60.64;100263.03;5137124;27;20206;-61
2023/06/26 01:10:29;;;;;;;6.63;6.00;;;;;;;19.33;60.73;100259.00;5130426;27;20264;-60
2023/06/26 01:12:58;;;;;;;7.53;6.47;;;;;;;19.27;60.89;100258.34;5131485;27;20657;-61
2023/06/26 01:15:26;;;;;;;7.70;6.90;;;;;;;19.25;61.12;100257.56;5140209;27;20561;-61
2023/06/26 01:18:03;;;;;;;6.53;5.88;;;;;;;19.21;61.35;100253.41;5127081;27;20231;-62
2023/06/26 01:20:36;;;;;;;8.18;6.53;;;;;;;19.22;61.38;100260.34;5136370;27;20230;-61
2023/06/26 01:23:18;;;;;;;7.10;6.20;;;;;;;19.18;61.57;100252.69;5134379;27;20777;-61
2023/06/26 01:26:00;;;;;;;8.60;6.20;;;;;;;19.14;61.80;100256.34;5132019;27;20221;-62
2023/06/26 01:28:30;;;;;;;8.85;6.60;;;;;;;19.13;61.91;100255.50;5131906;27;20676;-61
2023/06/26 01:30:59;;;;;;;10.30;6.60;;;;;;;19.11;61.55;100254.72;5133772;27;20248;-60
2023/06/26 01:33:28;;;;;;;8.15;6.85;;;;;;;19.10;61.62;100249.56;5129406;27;20602;-62
2023/06/26 01:35:56;;;;;;;9.15;7.32;;;;;;;19.08;61.37;100249.63;5135527;27;20236;-62
2023/06/26 01:38:24;;;;;;;8.30;7.25;;;;;;;19.07;61.13;100255.75;5132269;27;20255;-60
2023/06/26 01:40:52;;;;;;;10.70;7.10;;;;;;;19.04;61.26;100251.53;5134992;27;20653;-62
2023/06/26 01:43:28;;;;;;;12.55;7.70;;;;;;;19.00;60.89;100243.88;5134071;27;20207;-62
2023/06/26 01:46:02;;;;;;;10.70;6.95;;;;;;;19.00;60.27;100243.88;5134543;27;20616;-62
2023/06/26 01:48:35;;;;;;;8.10;6.53;;;;;;;18.97;60.35;100239.66;5124565;27;20250;-61
2023/06/26 01:51:03;;;;;;;8.15;6.80;;;;;;;18.98;60.11;100240.50;5130192;27;20195;-63
2023/06/26 01:53:37;;;;;;;8.13;7.15;;;;;;;18.99;60.22;100236.97;5124664;27;20266;-60
2023/06/26 01:56:09;;;;;;;10.80;7.03;;;;;;;19.01;60.87;100235.16;5133687;27;20199;-60
2023/06/26 01:58:41;;;;;;;10.25;7.13;;;;;;;19.03;60.81;100241.97;5128253;27;20196;-61
2023/06/26 02:01:11;;;;;;;7.50;6.65;;;;;;;19.00;61.00;100236.03;5133064;27;20223;-60
2023/06/26 02:03:39;;;;;;;8.65;7.05;;;;;;;19.02;60.99;100231.63;5131846;27;20278;-62
2023/06/26 02:06:08;;;;;;;10.32;7.93;;;;;;;18.99;61.12;100226.50;5134490;27;20211;-61
2023/06/26 02:08:37;;;;;;;9.10;7.13;;;;;;;18.95;61.26;100225.78;5129148;27;20199;-60
2023/06/26 02:11:04;;;;;;;8.65;6.55;;;;;;;18.94;61.54;100229.34;5135660;27;20207;-60
2023/06/26 02:13:32;;;;;;;10.27;6.63;;;;;;;18.92;61.69;100231.16;5132281;27;20264;-61
2023/06/26 02:16:00;;;;;;;8.82;6.45;;;;;;;18.91;61.78;100226.00;5134342;27;20207;-61
2023/06/26 02:18:30;;;;;;;8.60;7.05;;;;;;;18.93;62.01;100226.81;5133416;27;20203;-61
2023/06/26 02:20:58;;;;;;;10.10;7.35;;;;;;;18.93;61.78;100227.66;5130394;27;20203;-59
2023/06/26 02:23:26;;;;;;;9.02;6.93;;;;;;;18.90;61.34;100213.88;5132981;27;20211;-60
2023/06/26 02:25:53;;;;;;;7.72;6.35;;;;;;;19.01;61.01;100219.47;5131684;27;20568;-60
2023/06/26 02:28:21;;;;;;;7.68;6.60;;;;;;;19.04;60.77;100224.56;5128676;27;20207;-61
2023/06/26 02:30:49;;;;;;;10.80;7.03;;;;;;;19.06;60.54;100223.56;5132619;27;20568;-61
2023/06/26 02:33:17;;;;;;;7.47;6.30;;;;;;;19.06;60.46;100217.50;5131875;27;20227;-61
2023/06/26 02:35:47;;;;;;;10.35;6.88;;;;;;;19.08;61.03;100223.53;5134959;27;20194;-61
2023/06/26 02:38:14;;;;;;;12.98;7.55;;;;;;;19.06;60.98;100217.50;5133132;27;20573;-61
2023/06/26 02:40:42;;;;;;;12.48;7.30;;;;;;;19.04;61.53;100211.50;5132258;27;20639;-61
2023/06/26 02:43:10;;;;;;;10.43;6.82;;;;;;;19.01;61.62;100219.47;5129906;27;20223;-62
2023/06/26 02:45:38;;;;;;;10.38;7.25;;;;;;;18.98;61.77;100220.44;5127800;27;20199;-61
2023/06/26 02:48:06;;;;;;;11.30;7.57;;;;;;;18.96;62.06;100224.03;5133063;27;20200;-60
2023/06/26 02:50:34;;;;;;;9.30;6.47;;;;;;;18.94;61.37;100218.88;5129362;27;20229;-60
2023/06/26 02:53:04;;;;;;;10.40;6.90;;;;;;;18.93;61.42;100221.59;5135170;27;20203;-61
2023/06/26 02:55:32;;;;;;;10.00;6.90;;;;;;;18.92;61.39;100227.69;5131534;27;20207;-60
2023/06/26 02:58:00;;;;;;;8.88;6.13;;;;;;;18.90;61.11;100224.31;5131032;27;20689;-59
2023/06/26 03:00:29;;;;;;;11.45;6.53;;;;;;;18.90;61.54;100229.53;5130404;27;20232;-62
2023/06/26 03:02:58;;;;;;;8.48;6.97;;;;;;;18.89;61.43;100226.09;5129564;27;20211;-60
2023/06/26 03:05:26;;;;;;;7.45;6.32;;;;;;;18.90;61.36;100229.53;5129308;27;20562;-60
2023/06/26 03:07:54;;;;;;;7.28;6.57;;;;;;;18.89;61.19;100226.09;5133258;27;20204;-61
2023/06/26 03:10:23;;;;;;;7.32;5.95;;;;;;;18.89;61.09;100222.59;5130613;27;20199;-62
2023/06/26 03:12:51;;;;;;;8.73;6.13;;;;;;;18.89;61.33;100223.47;5134166;27;20198;-61
2023/06/26 03:15:20;;;;;;;8.45;6.25;;;;;;;18.91;61.33;100226.84;5129984;27;20295;-60
2023/06/26 03:17:48;;;;;;;7.80;6.28;;;;;;;18.95;61.31;100230.19;5131753;27;20658;-60
2023/06/26 03:20:16;;;;;;;7.85;6.40;;;;;;;18.98;61.02;100219.59;5133997;27;20204;-61
2023/06/26 03:22:44;;;;;;;8.57;6.07;;;;;;;18.96;61.01;100222.31;5133525;27;20292;-61
2023/06/26 03:25:12;;;;;;;7.28;6.32;;;;;;;18.99;61.49;100221.28;5130456;27;20207;-60
2023/06/26 03:27:41;;;;;;;8.55;6.63;;;;;;;19.03;61.13;100222.84;5134996;27;20245;-61
2023/06/26 03:30:11;;;;;;;7.47;6.70;;;;;;;19.06;61.01;100220.97;5129124;27;20202;-60
2023/06/26 03:32:39;;;;;;;7.43;6.03;;;;;;;19.08;60.99;100231.34;5127435;27;21023;-60
2023/06/26 03:35:07;;;;;;;9.65;6.53;;;;;;;19.07;61.08;100224.41;5127680;27;20571;-60
2023/06/26 03:37:35;;;;;;;8.07;6.43;;;;;;;19.07;61.17;100221.81;5133150;27;20623;-61
2023/06/26 03:40:04;;;;;;;9.02;7.00;;;;;;;19.12;61.10;100226.84;5131073;27;20573;-61
2023/06/26 03:42:33;;;;;;;11.35;7.30;;;;;;;19.13;60.94;100224.16;5131131;27;20218;-61
2023/06/26 03:45:02;;;;;;;8.93;6.28;;;;;;;19.16;60.86;100226.63;5129587;27;20199;-62
2023/06/26 03:47:30;;;;;;;8.80;7.50;;;;;;;19.18;60.71;100227.41;5122356;27;20677;-61
2023/06/26 03:49:58;;;;;;;9.80;6.95;;;;;;;19.23;60.37;100222.00;5128686;27;20295;-61
2023/06/26 03:52:26;;;;;;;9.57;7.30;;;;;;;19.26;60.61;100220.09;5132435;27;20206;-61
2023/06/26 03:54:54;;;;;;;9.02;7.45;;;;;;;19.33;60.43;100215.44;5131040;27;20213;-61
2023/06/26 03:57:22;;;;;;;8.90;7.40;;;;;;;19.43;60.16;100223.69;5130365;27;20213;-60
2023/06/26 03:59:50;;;;;;;9.35;7.53;;;;;;;19.49;60.14;100226.03;5131474;27;20198;-60
2023/06/26 04:02:19;;;;;;;11.73;8.20;;;;;;;19.56;60.09;100222.25;5129808;27;20538;-60
2023/06/26 04:04:47;;;;;;;10.10;7.63;;;;;;;19.61;59.51;100220.25;5132717;27;20209;-61
2023/06/26 04:07:15;;;;;;;8.80;7.60;;;;;;;19.64;59.11;100225.38;5126668;27;20627;-61
2023/06/26 04:09:43;;;;;;;8.85;7.45;;;;;;;19.69;59.15;100225.16;5130684;27;20285;-61
2023/06/26 04:12:11;;;;;;;11.40;8.32;;;;;;;19.71;58.95;100224.16;5130648;27;20789;-61
2023/06/26 04:14:39;;;;;;;9.57;7.30;;;;;;;19.77;58.72;100231.75;5127952;27;20202;-61
2023/06/26 04:17:07;;;;;;;9.13;7.70;;;;;;;19.86;58.84;100235.69;5131760;28;20210;-60
2023/06/26 04:19:37;;;;;;;11.95;7.68;;;;;;;19.98;58.51;100227.25;5133206;27;20225;-60
2023/06/26 04:22:05;;;;;;;10.43;7.22;;;;;;;20.13;58.26;100230.06;5126856;27;20206;-61
2023/06/26 04:24:33;;;;;;;9.25;7.35;;;;;;;20.28;57.78;100232.75;5128154;27;20215;-61
2023/06/26 04:27:01;;;;;;;11.65;6.85;;;;;;;20.40;57.46;100231.34;5129472;27;20553;-60
2023/06/26 04:29:28;;;;;;;10.02;7.93;;;;;;;20.56;57.17;100231.44;5131965;27;20640;-61
2023/06/26 04:31:57;;;;;;;11.25;7.20;;;;;;;20.71;56.50;100230.69;5134610;27;20358;-61
2023/06/26 04:34:27;;;;;;;11.75;7.22;;;;;;;20.84;55.81;100224.81;5137656;27;20202;-60
2023/06/26 04:36:56;;;;;;;9.18;7.35;;;;;;;20.98;55.25;100220.56;5134010;27;20561;-60
2023/06/26 04:39:24;;;;;;;9.13;7.00;;;;;;;21.14;54.79;100223.25;5131123;27;20723;-59
2023/06/26 04:41:52;;;;;;;8.07;6.97;;;;;;;21.31;54.18;100224.94;5133994;27;20206;-61
2023/06/26 04:44:21;;;;;;;11.35;7.05;;;;;;;21.47;53.95;100225.03;5132169;27;20634;-60
2023/06/26 04:46:51;;;;;;;11.60;6.95;;;;;;;21.63;53.28;100230.28;5133690;27;20327;-59
2023/06/26 04:49:19;;;;;;;9.73;6.80;;;;;;;21.78;53.12;100226.81;5134071;27;20662;-61
2023/06/26 04:51:48;;;;;;;12.45;7.03;;;;;;;21.95;52.62;100218.03;5129837;27;20211;-60
2023/06/26 04:54:18;;;;;;;8.88;6.80;;;;;;;22.06;52.07;100223.50;5128507;27;20227;-60
2023/06/26 04:56:47;;;;;;;9.52;6.80;;;;;;;22.21;51.49;100215.75;5126901;27;20261;-60
2023/06/26 04:59:15;;;;;;;8.80;6.38;;;;;;;22.35;50.86;100219.25;5134963;27;20222;-60
2023/06/26 05:01:47;;;;;;;8.63;6.95;;;;;;;22.51;50.43;100221.00;5133430;27;20202;-60
2023/06/26 05:04:16;;;;;;;9.73;7.22;;;;;;;22.66;49.91;100231.44;5129969;27;20215;-60
2023/06/26 05:06:44;;;;;;;8.68;7.10;;;;;;;22.80;49.08;100224.53;5130029;27;20199;-60
2023/06/26 05:09:13;;;;;;;10.82;6.93;;;;;;;22.93;48.96;100230.78;5133183;27;20199;-61
2023/06/26 05:11:43;;;;;;;9.80;7.18;;;;;;;23.03;48.29;100229.28;5124074;27;20207;-61
2023/06/26 05:14:11;;;;;;;8.98;6.90;;;;;;;23.15;48.15;100225.91;5129091;27;20211;-61
2023/06/26 05:16:39;;;;;;;11.32;7.10;;;;;;;23.36;47.42;100230.78;5121348;27;20207;-61
2023/06/26 05:19:06;;;;;;;10.43;7.10;;;;;;;23.71;47.05;100233.03;5131836;27;20222;-59
2023/06/26 05:21:35;;;;;;;8.10;6.65;;;;;;;24.31;46.32;100222.13;5133485;27;20520;-60
2023/06/26 05:24:04;;;;;;;9.63;6.43;;;;;;;25.29;44.18;100221.63;5133481;27;20243;-61
2023/06/26 05:26:33;;;;;;;8.15;6.25;;;;;;;26.85;40.46;100219.13;5132226;27;20226;-61
2023/06/26 05:29:02;;;;;;;12.60;6.93;;;;;;;28.76;35.90;100206.34;5132667;27;20199;-61
2023/06/26 05:31:33;;;;;;;9.30;6.45;;;;;;;30.67;31.98;100199.09;5132123;27;20694;-60
2023/06/26 05:34:04;;;;;;;9.82;6.93;;;;;;;32.44;28.98;100197.03;5122209;27;20195;-59
2023/06/26 05:36:34;;;;;;;9.25;6.35;;;;;;;33.93;26.87;100197.56;5121837;27;20200;-60
2023/06/26 05:39:03;;;;;;;6.80;5.97;;;;;;;35.42;24.29;100198.03;5124704;27;20203;-60
2023/06/26 05:41:31;;;;;;;8.75;6.10;;;;;;;36.83;22.87;100186.13;5109142;27;20255;-59
2023/06/26 05:43:59;;;;;;;6.35;5.75;;;;;;;38.06;21.25;100190.72;5125662;27;20636;-58
2023/06/26 05:46:29;;;;;;;9.75;5.45;;;;;;;39.09;20.04;100192.72;5120623;27;20214;-62
2023/06/26 05:48:57;;;;;;;6.57;5.95;;;;;;;40.02;18.51;100187.63;5122595;27;20211;-59
2023/06/26 05:51:26;;;;;;;7.22;5.70;;;;;;;40.94;17.73;100187.78;5124962;27;20218;-59
2023/06/26 05:53:54;;;;;;;8.18;6.60;;;;;;;41.74;16.95;100185.56;5126221;27;20626;-59
2023/06/26 05:56:23;;;;;;;6.35;5.45;;;;;;;42.32;16.36;100176.44;5122520;27;20211;-60
2023/06/26 05:58:52;;;;;;;7.10;5.50;;;;;;;42.97;15.29;100178.66;5137446;27;20209;-59
2023/06/26 06:01:20;;;;;;;6.38;5.78;;;;;;;43.49;14.88;100182.66;5133495;27;20202;-59
2023/06/26 06:03:49;;;;;;;7.30;5.05;;;;;;;43.91;14.74;100176.41;5133371;27;20320;-60
2023/06/26 06:06:17;;;;;;;6.38;4.65;;;;;;;44.38;14.21;100179.19;5134106;27;20202;-59
2023/06/26 06:08:45;;;;;;;6.85;4.93;;;;;;;44.85;13.77;100185.38;5133535;27;20210;-60
2023/06/26 06:11:16;;;;;;;7.20;4.70;;;;;;;45.32;13.56;100182.56;5133056;27;20198;-59
2023/06/26 06:13:44;;;;;;;6.40;3.90;;;;;;;45.50;13.06;100173.38;5126169;27;20191;-59
2023/06/26 06:16:12;;;;;;;5.25;4.00;;;;;;;45.40;13.62;100175.88;5122728;27;20214;-58
2023/06/26 06:18:40;;;;;;;4.80;4.30;;;;;;;45.68;13.24;100175.06;5130664;27;20199;-61
2023/06/26 06:21:09;;;;;;;4.97;4.53;;;;;;;45.53;13.20;100179.16;5129118;27;20206;-59
2023/06/26 06:23:38;;;;;;;6.03;4.25;;;;;;;45.75;12.68;100168.38;5126988;27;20206;-58
2023/06/26 06:26:06;;;;;;;5.28;4.78;;;;;;;46.16;12.47;100173.69;5131209;27;20615;-60
2023/06/26 06:28:34;;;;;;;11.88;6.22;;;;;;;46.53;12.28;100173.97;5130081;27;20278;-59
2023/06/26 06:31:02;;;;;;;6.97;4.05;;;;;;;46.85;11.85;100171.44;5121664;27;20230;-59
2023/06/26 06:33:30;;;;;;;8.68;4.60;;;;;;;46.60;11.96;100173.84;5129394;27;20270;-59
2023/06/26 06:35:58;;;;;;;9.48;4.70;;;;;;;46.35;12.28;100166.91;5133155;27;20209;-58
2023/06/26 06:38:27;;;;;;;6.47;4.15;;;;;;;46.55;12.55;100165.53;5126820;27;20210;-58
2023/06/26 06:40:55;;;;;;;5.93;3.58;;;;;;;47.13;11.75;100161.41;5133402;27;20199;-59
2023/06/26 06:43:23;;;;;;;7.22;3.40;;;;;;;47.84;11.25;100167.59;5122534;27;20641;-59
2023/06/26 06:45:51;;;;;;;5.10;3.70;;;;;;;48.08;11.01;100167.25;5127972;27;20280;-59
2023/06/26 06:48:19;;;;;;;3.15;2.75;;;;;;;48.38;10.61;100164.69;5123328;27;20202;-60
2023/06/26 06:50:48;;;;;;;5.03;3.40;;;;;;;48.66;10.30;100164.59;5125099;27;20236;-59
2023/06/26 06:53:15;;;;;;;4.95;4.03;;;;;;;48.60;10.37;100166.47;5127593;27;20558;-58
2023/06/26 06:55:45;;;;;;;3.35;3.05;;;;;;;48.83;10.16;100163.31;5128309;27;20240;-60
2023/06/26 06:58:13;;;;;;;4.07;3.70;;;;;;;49.10;10.21;100162.31;5132879;27;20256;-59
2023/06/26 07:00:41;;;;;;;5.05;3.50;;;;;;;48.97;9.71;100158.16;5129231;27;20209;-58
2023/06/26 07:03:10;;;;;;;4.95;3.45;;;;;;;48.82;9.83;100158.09;5130050;27;20198;-60
2023/06/26 07:05:38;;;;;;;3.38;3.08;;;;;;;48.41;9.75;100159.78;5127740;27;20258;-59
2023/06/26 07:08:06;;;;;;;3.42;2.92;;;;;;;48.48;9.88;100157.66;5129890;27;20725;-59
2023/06/26 07:10:35;;;;;;;3.65;3.35;;;;;;;48.59;9.77;100156.63;5124035;27;20590;-60
2023/06/26 07:13:04;;;;;;;4.50;3.45;;;;;;;48.79;9.54;100162.22;5126390;27;20202;-59
2023/06/26 07:15:32;;;;;;;3.35;3.05;;;;;;;48.83;9.30;100151.53;5124604;27;20209;-58
2023/06/26 07:18:00;;;;;;;3.80;2.70;;;;;;;48.78;9.41;100154.25;5124689;27;20242;-59
2023/06/26 07:20:28;;;;;;;3.33;3.00;;;;;;;48.42;9.67;100145.03;5132280;27;20206;-57
2023/06/26 07:22:56;;;;;;;6.25;3.05;;;;;;;48.26;9.74;100147.69;5120933;27;22123;-58
2023/06/26 07:25:24;;;;;;;3.70;3.38;;;;;;;48.15;9.69;100145.97;5130418;27;20215;-58
2023/06/26 07:27:52;;;;;;;5.45;3.50;;;;;;;48.23;9.92;100153.66;5130750;27;20190;-60
2023/06/26 07:30:22;;;;;;;3.85;3.03;;;;;;;48.17;9.56;100146.53;5131239;27;20198;-58
2023/06/26 07:32:50;;;;;;;3.28;3.03;;;;;;;47.92;9.58;100147.97;5127762;27;20311;-58
2023/06/26 07:35:18;;;;;;;3.70;3.40;;;;;;;47.94;9.80;100144.97;5124831;27;20206;-59
2023/06/26 07:37:46;;;;;;;4.53;3.50;;;;;;;47.59;9.98;100142.78;5128149;27;20740;-58
2023/06/26 07:40:17;;;;;;;3.10;2.70;;;;;;;46.79;10.38;100144.34;5126809;27;20385;-59
2023/06/26 07:42:46;;;;;;;3.10;2.90;;;;;;;45.56;10.89;100141.66;5123751;27;20290;-59
2023/06/26 07:45:14;;;;;;;3.75;2.67;;;;;;;43.69;11.90;100138.09;5129607;27;20214;-60
2023/06/26 07:47:43;;;;;;;4.15;3.75;;;;;;;41.54;14.05;100136.16;5129198;27;20220;-59
2023/06/26 07:50:12;;;;;;;9.55;5.65;;;;;;;39.41;15.39;100138.34;5131591;27;20595;-60
2023/06/26 07:52:39;;;;;;;6.95;4.80;;;;;;;37.41;17.49;100138.69;5126604;27;20584;-59
2023/06/26 07:55:08;;;;;;;10.18;6.15;;;;;;;35.95;19.01;100152.69;5119268;27;20287;-60
2023/06/26 07:57:36;;;;;;;7.30;4.53;;;;;;;35.04;20.33;100152.34;5126261;27;20551;-59
2023/06/26 08:00:06;;;;;;;12.82;7.93;;;;;;;34.34;21.29;100152.13;5129199;27;20214;-58
2023/06/26 08:02:34;;;;;;;7.65;4.93;;;;;;;33.84;22.33;100145.09;5129012;27;20280;-60
2023/06/26 08:05:04;;;;;;;15.68;7.68;;;;;;;33.29;22.80;100142.97;5128104;27;20204;-59
2023/06/26 08:07:32;;;;;;;20.00;8.63;;;;;;;32.81;23.71;100144.38;5128864;27;20244;-59
2023/06/26 08:10:00;;;;;;;7.80;5.03;;;;;;;32.21;24.66;100156.66;5128945;27;20570;-60
2023/06/26 08:12:28;;;;;;;11.60;7.63;;;;;;;31.54;25.42;100144.69;5132016;27;20248;-59
2023/06/26 08:14:56;;;;;;;9.98;5.97;;;;;;;31.16;25.47;100148.41;5131089;27;20196;-60
2023/06/26 08:17:24;;;;;;;21.15;9.68;;;;;;;30.87;25.82;100146.69;5122171;27;20604;-60
2023/06/26 08:19:54;;;;;;;15.85;6.72;;;;;;;30.61;26.80;100148.28;5129870;27;20195;-62
2023/06/26 08:22:24;;;;;;;6.50;4.07;;;;;;;30.27;27.82;100146.13;5126459;27;20199;-58
2023/06/26 08:24:52;;;;;;;5.43;4.43;;;;;;;30.18;27.14;100149.63;5131717;27;20199;-60
2023/06/26 08:27:20;;;;;;;4.30;3.90;;;;;;;30.16;27.12;100144.44;5122467;27;20203;-60
2023/06/26 08:29:48;;;;;;;12.48;8.07;;;;;;;30.12;27.19;100139.50;5130091;27;20202;-61
2023/06/26 08:32:16;;;;;;;8.95;4.80;;;;;;;29.85;27.19;100141.06;5128043;27;20227;-60
2023/06/26 08:34:44;;;;;;;11.50;5.95;;;;;;;29.61;27.78;100136.16;5134309;27;20252;-62
2023/06/26 08:37:15;;;;;;;7.47;4.45;;;;;;;29.50;27.85;100133.59;5127035;27;20210;-61
2023/06/26 08:39:45;;;;;;;7.47;4.70;;;;;;;29.35;27.69;100134.00;5121633;27;20248;-60
2023/06/26 08:42:13;;;;;;;6.43;3.85;;;;;;;29.20;27.63;100134.50;5118622;27;20206;-61
2023/06/26 08:44:41;;;;;;;6.35;3.70;;;;;;;29.12;27.71;100137.81;5126133;27;20542;-62
2023/06/26 08:47:23;;;;;;;10.73;5.85;;;;;;;29.24;27.96;100130.63;5128689;27;20188;-61
2023/06/26 08:50:01;;;;;;;4.85;3.80;;;;;;;29.33;28.15;100129.78;5126250;27;20268;-61
2023/06/26 08:52:32;;;;;;;4.22;3.83;;;;;;;29.22;27.81;100130.75;5119817;27;21516;-60
2023/06/26 08:55:03;;;;;;;4.18;3.40;;;;;;;29.10;27.62;100127.34;5126853;27;20211;-59
2023/06/26 08:57:32;;;;;;;3.22;2.92;;;;;;;29.04;27.85;100127.06;5123270;27;20216;-58
2023/06/26 09:00:01;;;;;;;5.13;3.47;;;;;;;29.05;28.13;100131.38;5134040;27;20206;-60
2023/06/26 09:02:29;;;;;;;6.40;3.70;;;;;;;28.96;28.52;100129.50;5127003;27;20207;-59
2023/06/26 09:04:58;;;;;;;4.15;3.50;;;;;;;28.95;28.36;100127.84;5123898;27;20611;-60
2023/06/26 09:07:26;;;;;;;4.13;3.72;;;;;;;28.86;28.21;100122.34;5124457;27;20206;-61
2023/06/26 09:09:54;;;;;;;7.07;3.28;;;;;;;28.80;28.15;100122.88;5129096;27;20230;-59
2023/06/26 09:12:23;;;;;;;3.95;3.30;;;;;;;28.73;28.84;100116.44;5131665;27;20611;-59
2023/06/26 09:14:51;;;;;;;5.55;3.42;;;;;;;28.63;29.18;100112.88;5136550;27;20207;-59
2023/06/26 09:17:19;;;;;;;3.20;2.90;;;;;;;28.68;29.40;100118.63;5128994;27;20226;-60
2023/06/26 09:19:49;;;;;;;3.35;3.05;;;;;;;28.78;29.07;100111.56;5131745;27;20635;-61
2023/06/26 09:22:18;;;;;;;3.75;3.25;;;;;;;28.86;27.94;100111.72;5131949;27;20209;-62
2023/06/26 09:24:46;;;;;;;5.45;3.97;;;;;;;28.80;28.19;100114.09;5132195;27;20618;-60
2023/06/26 09:27:14;;;;;;;4.25;3.08;;;;;;;28.74;28.09;100104.84;5125048;27;20210;-60
2023/06/26 09:29:46;;;;;;;4.43;3.20;;;;;;;28.69;28.43;100104.41;5129701;27;20309;-61
2023/06/26 09:32:14;;;;;;;4.60;3.42;;;;;;;28.67;28.43;100106.34;5130466;27;20237;-60
2023/06/26 09:34:44;;;;;;;4.75;3.67;;;;;;;28.63;27.94;100108.41;5125063;27;20207;-61
2023/06/26 09:37:13;;;;;;;3.60;3.28;;;;;;;28.49;28.33;100102.63;5131658;27;20203;-58
2023/06/26 09:39:41;;;;;;;5.50;2.83;;;;;;;28.36;28.39;100102.81;5125157;27;20222;-60
2023/06/26 09:42:09;;;;;;;3.45;3.17;;;;;;;28.32;29.30;100101.41;5130526;27;20229;-59
2023/06/26 09:44:37;;;;;;;4.10;3.70;;;;;;;28.28;29.06;100103.47;5128866;27;20674;-60
2023/06/26 09:47:08;;;;;;;6.25;3.20;;;;;;;28.25;29.15;100094.94;5133381;27;20241;-60
2023/06/26 09:49:36;;;;;;;4.10;3.47;;;;;;;28.36;29.03;100100.16;5132227;27;20267;-61
2023/06/26 09:52:04;;;;;;;4.85;3.92;;;;;;;28.60;29.19;100092.78;5123277;27;20290;-61
2023/06/26 09:54:33;;;;;;;3.40;3.10;;;;;;;28.86;28.32;100095.81;5124929;27;20234;-60
2023/06/26 09:57:08;;;;;;;4.13;2.90;;;;;;;29.05;26.90;100088.91;5130345;27;20199;-60
2023/06/26 09:59:36;;;;;;;3.53;2.70;;;;;;;29.17;26.54;100087.84;5134435;27;20198;-60
2023/06/26 10:02:05;;;;;;;4.32;2.97;;;;;;;29.27;25.90;100087.84;5132010;27;20234;-60
2023/06/26 10:04:37;;;;;;;4.28;3.30;;;;;;;29.40;26.31;100087.63;5132470;27;20636;-59
2023/06/26 10:07:07;;;;;;;20.85;7.38;;;;;;;29.85;26.56;100088.78;5132865;27;20225;-63
2023/06/26 10:09:38;;;;;;;7.97;3.90;;;;;;;30.33;26.08;100082.56;5130777;27;20200;-61
2023/06/26 10:12:12;;;;;;;5.63;3.50;;;;;;;31.21;25.33;100085.72;5130217;27;20544;-60
2023/06/26 10:14:42;;;;;;;3.45;3.05;;;;;;;32.14;23.60;100085.44;5128288;27;20203;-60
2023/06/26 10:17:17;;;;;;;3.15;2.85;;;;;;;33.07;22.08;100080.31;5124271;27;20243;-59
2023/06/26 10:19:48;;;;;;;4.60;3.17;;;;;;;33.79;20.50;100075.25;5132353;27;20203;-62
2023/06/26 10:22:18;;;;;;;3.25;2.95;;;;;;;34.79;19.30;100071.25;5131635;27;20203;-59
2023/06/26 10:24:48;;;;;;;3.33;2.28;;;;;;;35.78;17.77;100066.16;5132959;27;20206;-61
2023/06/26 10:27:18;;;;;;;2.63;2.30;;;;;;;36.73;16.75;100061.00;5131330;27;20217;-61
2023/06/26 10:29:49;;;;;;;3.17;2.80;;;;;;;37.40;16.07;100053.72;5127157;27;20203;-60
2023/06/26 10:32:19;;;;;;;3.63;2.78;;;;;;;36.85;16.40;100053.28;5133015;27;20262;-60
2023/06/26 10:34:48;;;;;;;3.83;2.60;;;;;;;36.33;17.33;100054.25;5133944;27;20199;-60
2023/06/26 10:37:16;;;;;;;3.35;2.80;;;;;;;35.42;18.50;100055.19;5134671;27;20191;-60
2023/06/26 10:39:49;;;;;;;3.08;2.70;;;;;;;34.68;19.78;100060.91;5132243;27;20572;-58
2023/06/26 10:42:18;;;;;;;3.38;3.03;;;;;;;35.02;19.80;100057.97;5123927;27;20588;-58
2023/06/26 10:44:48;;;;;;;4.05;2.97;;;;;;;35.87;18.99;100051.69;5125570;27;20196;-59
2023/06/26 10:47:31;;;;;;;5.43;2.75;;;;;;;36.80;17.59;100044.97;5121447;27;20810;-60
2023/06/26 10:50:24;;;;;;;4.85;2.80;;;;;;;37.19;17.13;100047.31;5115105;27;20618;-60
2023/06/26 10:53:15;;;;;;;4.75;3.20;;;;;;;37.48;16.49;100038.31;5120230;27;20235;-60
2023/06/26 10:55:44;;;;;;;3.95;3.55;;;;;;;37.84;17.32;100029.28;5117877;27;20242;-59
2023/06/26 10:58:42;;;;;;;3.55;3.10;;;;;;;37.42;16.75;100035.56;5130944;27;20199;-60
2023/06/26 11:01:22;;;;;;;3.20;2.90;;;;;;;36.13;17.92;100039.72;5115985;27;20230;-60
2023/06/26 11:04:02;;;;;;;3.13;2.83;;;;;;;34.66;19.44;100043.38;5125704;27;20310;-59
2023/06/26 11:06:33;;;;;;;3.05;2.70;;;;;;;33.85;20.77;100043.34;5130554;27;20211;-59
2023/06/26 11:09:07;;;;;;;3.33;2.92;;;;;;;32.99;21.30;100040.22;5125405;27;20546;-60
2023/06/26 11:11:59;;;;;;;4.55;2.85;;;;;;;31.59;22.76;100051.81;5132933;27;20206;-60
2023/06/26 11:14:27;;;;;;;3.88;3.58;;;;;;;30.58;24.11;100048.34;5126994;27;20287;-60
2023/06/26 11:16:59;;;;;;;3.40;3.10;;;;;;;29.89;25.43;100046.00;5130678;27;20230;-59
2023/06/26 11:19:29;;;;;;;3.00;2.72;;;;;;;29.59;26.51;100043.34;5131870;27;20286;-59
2023/06/26 11:22:04;;;;;;;5.60;2.95;;;;;;;29.45;25.84;100032.28;5128351;27;20209;-60
2023/06/26 11:24:33;;;;;;;4.78;3.03;;;;;;;29.19;26.50;100032.81;5128217;27;20202;-62
2023/06/26 11:27:03;;;;;;;4.60;3.00;;;;;;;28.95;27.19;100035.81;5123642;27;20611;-60
2023/06/26 11:29:33;;;;;;;4.50;3.22;;;;;;;28.97;26.83;100030.38;5125401;27;20203;-60
2023/06/26 11:32:05;;;;;;;4.63;2.60;;;;;;;28.99;26.66;100028.47;5125453;27;20207;-60
2023/06/26 11:34:34;;;;;;;3.78;2.70;;;;;;;28.82;26.57;100036.06;5130296;27;20199;-59